sensor_id;sensor_type;location;lat;lon;timestamp;temperature;humidity
63802;DHT22;49949;43.060;25.624;2023-07-16T00:00:04;22.60;99.90
63802;DHT22;49949;43.060;25.624;2023-07-16T00:02:30;22.60;99.90
63802;DHT22;49949;43.060;25.624;2023-07-16T00:04:56;22.60;99.90
63802;DHT22;49949;43.060;25.624;2023-07-16T00:07:22;22.50;99.90
63802;DHT22;49949;43.060;25.624;2023-07-16T00:09:47;22.50;99.90
63802;DHT22;49949;43.060;25.624;2023-07-16T00:12:13;22.50;99.90
63802;DHT22;49949;43.060;25.624;2023-07-16T00:14:39;22.40;99.90
63802;DHT22;49949;43.060;25.624;2023-07-16T00:17:04;22.40;99.90
63802;DHT22;49949;43.060;25.624;2023-07-16T00:19:30;22.40;99.90
63802;DHT22;49949;43.060;25.624;2023-07-16T00:21:55;22.30;99.90
63802;DHT22;49949;43.060;25.624;2023-07-16T00:24:21;22.30;99.90
63802;DHT22;49949;43.060;25.624;2023-07-16T00:26:47;22.30;99.90
63802;DHT22;49949;43.060;25.624;2023-07-16T00:29:12;22.30;99.90
63802;DHT22;49949;43.060;25.624;2023-07-16T00:31:38;22.20;99.90
63802;DHT22;49949;43.060;25.624;2023-07-16T00:34:04;22.20;99.90
63802;DHT22;49949;43.060;25.624;2023-07-16T00:36:29;22.20;99.90
63802;DHT22;49949;43.060;25.624;2023-07-16T00:38:55;22.20;99.90
63802;DHT22;49949;43.060;25.624;2023-07-16T00:41:21;22.10;99.90
63802;DHT22;49949;43.060;25.624;2023-07-16T00:43:46;22.10;99.90
63802;DHT22;49949;43.060;25.624;2023-07-16T00:46:12;22.00;99.90
63802;DHT22;49949;43.060;25.624;2023-07-16T00:48:38;22.00;99.90
63802;DHT22;49949;43.060;25.624;2023-07-16T00:51:05;22.00;99.90
63802;DHT22;49949;43.060;25.624;2023-07-16T00:53:31;21.90;99.90
63802;DHT22;49949;43.060;25.624;2023-07-16T00:55:57;21.90;99.90
63802;DHT22;49949;43.060;25.624;2023-07-16T00:58:23;21.90;99.90
63802;DHT22;49949;43.060;25.624;2023-07-16T01:00:49;21.90;99.90
63802;DHT22;49949;43.060;25.624;2023-07-16T01:03:14;21.80;99.90
63802;DHT22;49949;43.060;25.624;2023-07-16T01:05:55;21.80;99.90
63802;DHT22;49949;43.060;25.624;2023-07-16T01:08:39;21.80;99.90
63802;DHT22;49949;43.060;25.624;2023-07-16T01:11:07;21.60;99.90
63802;DHT22;49949;43.060;25.624;2023-07-16T01:13:34;21.70;99.90
63802;DHT22;49949;43.060;25.624;2023-07-16T01:16:00;21.70;99.90
63802;DHT22;49949;43.060;25.624;2023-07-16T01:18:25;21.60;99.90
63802;DHT22;49949;43.060;25.624;2023-07-16T01:20:51;21.60;99.90
63802;DHT22;49949;43.060;25.624;2023-07-16T01:23:35;21.70;99.90
63802;DHT22;49949;43.060;25.624;2023-07-16T01:31:28;21.80;99.90
63802;DHT22;49949;43.060;25.624;2023-07-16T01:33:54;21.70;99.90
63802;DHT22;49949;43.060;25.624;2023-07-16T01:36:21;21.60;99.90
63802;DHT22;49949;43.060;25.624;2023-07-16T01:38:47;21.60;99.90
63802;DHT22;49949;43.060;25.624;2023-07-16T01:41:13;21.50;99.90
63802;DHT22;49949;43.060;25.624;2023-07-16T01:43:39;21.50;99.90
63802;DHT22;49949;43.060;25.624;2023-07-16T01:46:04;21.40;99.90
63802;DHT22;49949;43.060;25.624;2023-07-16T01:48:31;21.40;99.90
63802;DHT22;49949;43.060;25.624;2023-07-16T01:50:57;21.40;99.90
63802;DHT22;49949;43.060;25.624;2023-07-16T01:53:23;21.30;99.90
63802;DHT22;49949;43.060;25.624;2023-07-16T01:55:49;21.30;99.90
63802;DHT22;49949;43.060;25.624;2023-07-16T01:58:14;21.30;99.90
63802;DHT22;49949;43.060;25.624;2023-07-16T02:00:41;21.20;99.90
63802;DHT22;49949;43.060;25.624;2023-07-16T02:03:06;21.20;99.90
63802;DHT22;49949;43.060;25.624;2023-07-16T02:05:32;21.20;99.90
63802;DHT22;49949;43.060;25.624;2023-07-16T02:08:01;21.20;99.90
63802;DHT22;49949;43.060;25.624;2023-07-16T02:10:27;21.20;99.90
63802;DHT22;49949;43.060;25.624;2023-07-16T02:12:52;21.20;99.90
63802;DHT22;49949;43.060;25.624;2023-07-16T02:15:19;21.10;99.90
63802;DHT22;49949;43.060;25.624;2023-07-16T02:17:45;21.20;99.90
63802;DHT22;49949;43.060;25.624;2023-07-16T02:20:11;21.10;99.90
63802;DHT22;49949;43.060;25.624;2023-07-16T02:22:37;21.10;99.90
63802;DHT22;49949;43.060;25.624;2023-07-16T02:25:03;21.10;99.90
63802;DHT22;49949;43.060;25.624;2023-07-16T02:27:29;21.10;99.90
63802;DHT22;49949;43.060;25.624;2023-07-16T02:29:55;21.10;99.90
63802;DHT22;49949;43.060;25.624;2023-07-16T02:32:21;21.00;99.90
63802;DHT22;49949;43.060;25.624;2023-07-16T02:34:46;21.00;99.90
63802;DHT22;49949;43.060;25.624;2023-07-16T02:37:12;21.00;99.90
63802;DHT22;49949;43.060;25.624;2023-07-16T02:39:39;21.00;99.90
63802;DHT22;49949;43.060;25.624;2023-07-16T02:42:05;21.00;99.90
63802;DHT22;49949;43.060;25.624;2023-07-16T02:44:30;21.00;99.90
63802;DHT22;49949;43.060;25.624;2023-07-16T02:46:56;21.00;99.90
63802;DHT22;49949;43.060;25.624;2023-07-16T02:49:22;21.00;99.90
63802;DHT22;49949;43.060;25.624;2023-07-16T02:51:47;21.00;99.90
63802;DHT22;49949;43.060;25.624;2023-07-16T02:54:13;20.90;99.90
63802;DHT22;49949;43.060;25.624;2023-07-16T02:56:39;20.90;99.90
63802;DHT22;49949;43.060;25.624;2023-07-16T02:59:05;20.90;99.90
63802;DHT22;49949;43.060;25.624;2023-07-16T03:01:30;20.90;99.90
63802;DHT22;49949;43.060;25.624;2023-07-16T03:03:56;20.90;99.90
63802;DHT22;49949;43.060;25.624;2023-07-16T03:06:22;20.90;99.90
63802;DHT22;49949;43.060;25.624;2023-07-16T03:08:47;20.90;99.90
63802;DHT22;49949;43.060;25.624;2023-07-16T03:11:13;20.90;99.90
63802;DHT22;49949;43.060;25.624;2023-07-16T03:13:39;20.90;99.90
63802;DHT22;49949;43.060;25.624;2023-07-16T03:16:05;20.90;99.90
63802;DHT22;49949;43.060;25.624;2023-07-16T03:18:31;20.90;99.90
63802;DHT22;49949;43.060;25.624;2023-07-16T03:20:57;20.90;99.90
63802;DHT22;49949;43.060;25.624;2023-07-16T03:23:23;21.00;99.90
63802;DHT22;49949;43.060;25.624;2023-07-16T03:25:49;21.00;99.90
63802;DHT22;49949;43.060;25.624;2023-07-16T03:28:15;21.00;99.90
63802;DHT22;49949;43.060;25.624;2023-07-16T03:30:46;21.00;99.90
63802;DHT22;49949;43.060;25.624;2023-07-16T03:33:11;21.20;99.90
63802;DHT22;49949;43.060;25.624;2023-07-16T03:35:37;21.50;99.90
63802;DHT22;49949;43.060;25.624;2023-07-16T03:38:02;21.70;99.90
63802;DHT22;49949;43.060;25.624;2023-07-16T03:40:28;22.00;99.90
63802;DHT22;49949;43.060;25.624;2023-07-16T03:42:54;22.20;99.90
63802;DHT22;49949;43.060;25.624;2023-07-16T03:45:20;22.60;99.90
63802;DHT22;49949;43.060;25.624;2023-07-16T03:47:45;22.80;99.90
63802;DHT22;49949;43.060;25.624;2023-07-16T03:50:11;23.00;99.90
63802;DHT22;49949;43.060;25.624;2023-07-16T03:52:37;23.20;99.90
63802;DHT22;49949;43.060;25.624;2023-07-16T03:55:03;23.60;99.90
63802;DHT22;49949;43.060;25.624;2023-07-16T03:57:29;23.80;99.90
63802;DHT22;49949;43.060;25.624;2023-07-16T03:59:55;24.20;99.90
63802;DHT22;49949;43.060;25.624;2023-07-16T04:02:21;24.50;99.90
63802;DHT22;49949;43.060;25.624;2023-07-16T04:04:46;24.70;99.90
63802;DHT22;49949;43.060;25.624;2023-07-16T04:07:12;24.80;99.90
63802;DHT22;49949;43.060;25.624;2023-07-16T04:09:39;25.10;99.90
63802;DHT22;49949;43.060;25.624;2023-07-16T04:12:06;25.40;99.90
63802;DHT22;49949;43.060;25.624;2023-07-16T04:14:32;25.50;99.90
63802;DHT22;49949;43.060;25.624;2023-07-16T04:16:58;25.40;99.90
63802;DHT22;49949;43.060;25.624;2023-07-16T04:19:23;25.30;99.90
63802;DHT22;49949;43.060;25.624;2023-07-16T04:21:49;25.30;99.90
63802;DHT22;49949;43.060;25.624;2023-07-16T04:24:15;25.50;99.90
63802;DHT22;49949;43.060;25.624;2023-07-16T04:26:40;25.80;99.90
63802;DHT22;49949;43.060;25.624;2023-07-16T04:29:06;26.20;99.90
63802;DHT22;49949;43.060;25.624;2023-07-16T04:31:32;26.30;99.90
63802;DHT22;49949;43.060;25.624;2023-07-16T04:33:58;26.60;99.90
63802;DHT22;49949;43.060;25.624;2023-07-16T04:36:23;27.00;99.90
63802;DHT22;49949;43.060;25.624;2023-07-16T04:38:49;27.40;99.90
63802;DHT22;49949;43.060;25.624;2023-07-16T04:41:16;27.60;99.90
63802;DHT22;49949;43.060;25.624;2023-07-16T04:43:42;28.10;99.90
63802;DHT22;49949;43.060;25.624;2023-07-16T04:46:08;28.50;99.90
63802;DHT22;49949;43.060;25.624;2023-07-16T04:48:33;28.50;99.90
63802;DHT22;49949;43.060;25.624;2023-07-16T04:50:59;28.50;99.90
63802;DHT22;49949;43.060;25.624;2023-07-16T04:53:25;28.60;99.90
63802;DHT22;49949;43.060;25.624;2023-07-16T04:55:51;29.00;99.90
63802;DHT22;49949;43.060;25.624;2023-07-16T04:58:16;29.40;99.90
63802;DHT22;49949;43.060;25.624;2023-07-16T05:00:42;29.70;98.30
63802;DHT22;49949;43.060;25.624;2023-07-16T05:03:08;29.80;98.70
63802;DHT22;49949;43.060;25.624;2023-07-16T05:05:34;29.80;98.20
63802;DHT22;49949;43.060;25.624;2023-07-16T05:08:01;29.70;99.50
63802;DHT22;49949;43.060;25.624;2023-07-16T05:10:27;29.90;96.90
63802;DHT22;49949;43.060;25.624;2023-07-16T05:12:53;29.90;95.90
63802;DHT22;49949;43.060;25.624;2023-07-16T05:15:19;30.00;95.00
63802;DHT22;49949;43.060;25.624;2023-07-16T05:17:44;30.30;93.10
63802;DHT22;49949;43.060;25.624;2023-07-16T05:20:10;30.80;91.60
63802;DHT22;49949;43.060;25.624;2023-07-16T05:22:36;31.00;91.10
63802;DHT22;49949;43.060;25.624;2023-07-16T05:25:02;31.30;90.00
63802;DHT22;49949;43.060;25.624;2023-07-16T05:27:29;31.70;87.20
63802;DHT22;49949;43.060;25.624;2023-07-16T05:29:55;31.90;87.20
63802;DHT22;49949;43.060;25.624;2023-07-16T05:32:21;32.00;87.20
63802;DHT22;49949;43.060;25.624;2023-07-16T05:34:47;32.30;86.70
63802;DHT22;49949;43.060;25.624;2023-07-16T05:37:13;32.50;85.80
63802;DHT22;49949;43.060;25.624;2023-07-16T05:39:39;32.30;85.40
63802;DHT22;49949;43.060;25.624;2023-07-16T05:42:05;32.10;86.00
63802;DHT22;49949;43.060;25.624;2023-07-16T05:44:31;31.90;85.00
63802;DHT22;49949;43.060;25.624;2023-07-16T05:46:57;31.80;86.20
63802;DHT22;49949;43.060;25.624;2023-07-16T05:49:23;31.70;87.20
63802;DHT22;49949;43.060;25.624;2023-07-16T05:51:49;31.70;86.80
63802;DHT22;49949;43.060;25.624;2023-07-16T05:54:15;31.70;86.40
63802;DHT22;49949;43.060;25.624;2023-07-16T05:56:41;31.50;86.60
63802;DHT22;49949;43.060;25.624;2023-07-16T05:59:07;31.60;86.70
63802;DHT22;49949;43.060;25.624;2023-07-16T06:01:33;31.50;86.30
63802;DHT22;49949;43.060;25.624;2023-07-16T06:03:58;31.40;87.30
63802;DHT22;49949;43.060;25.624;2023-07-16T06:06:28;31.60;86.50
63802;DHT22;49949;43.060;25.624;2023-07-16T06:08:54;31.80;86.00
63802;DHT22;49949;43.060;25.624;2023-07-16T06:11:20;31.80;85.80
63802;DHT22;49949;43.060;25.624;2023-07-16T06:13:46;31.90;85.10
63802;DHT22;49949;43.060;25.624;2023-07-16T06:16:12;31.70;85.80
63802;DHT22;49949;43.060;25.624;2023-07-16T06:18:37;31.80;84.90
63802;DHT22;49949;43.060;25.624;2023-07-16T06:21:03;31.50;84.40
63802;DHT22;49949;43.060;25.624;2023-07-16T06:23:29;31.20;88.00
63802;DHT22;49949;43.060;25.624;2023-07-16T06:25:55;31.20;88.90
63802;DHT22;49949;43.060;25.624;2023-07-16T06:28:22;31.50;88.50
63802;DHT22;49949;43.060;25.624;2023-07-16T06:30:47;31.80;85.80
63802;DHT22;49949;43.060;25.624;2023-07-16T06:33:13;31.80;83.20
63802;DHT22;49949;43.060;25.624;2023-07-16T06:35:39;32.10;83.80
63802;DHT22;49949;43.060;25.624;2023-07-16T06:38:05;32.50;80.80
63802;DHT22;49949;43.060;25.624;2023-07-16T06:40:30;32.80;78.90
63802;DHT22;49949;43.060;25.624;2023-07-16T06:42:56;32.90;79.50
63802;DHT22;49949;43.060;25.624;2023-07-16T06:45:22;32.80;79.70
63802;DHT22;49949;43.060;25.624;2023-07-16T06:47:48;32.80;78.90
63802;DHT22;49949;43.060;25.624;2023-07-16T06:50:14;32.40;80.40
63802;DHT22;49949;43.060;25.624;2023-07-16T06:52:40;32.20;80.40
63802;DHT22;49949;43.060;25.624;2023-07-16T06:55:05;32.30;81.10
63802;DHT22;49949;43.060;25.624;2023-07-16T06:57:31;32.40;81.30
63802;DHT22;49949;43.060;25.624;2023-07-16T06:59:57;32.70;79.40
63802;DHT22;49949;43.060;25.624;2023-07-16T07:02:23;32.90;78.80
63802;DHT22;49949;43.060;25.624;2023-07-16T07:04:50;33.00;79.00
63802;DHT22;49949;43.060;25.624;2023-07-16T07:07:17;32.80;79.20
63802;DHT22;49949;43.060;25.624;2023-07-16T07:09:43;33.00;77.50
63802;DHT22;49949;43.060;25.624;2023-07-16T07:12:08;33.00;77.90
63802;DHT22;49949;43.060;25.624;2023-07-16T07:14:35;33.00;77.30
63802;DHT22;49949;43.060;25.624;2023-07-16T07:17:01;33.20;77.60
63802;DHT22;49949;43.060;25.624;2023-07-16T07:19:27;33.50;76.70
63802;DHT22;49949;43.060;25.624;2023-07-16T07:21:52;33.40;77.00
63802;DHT22;49949;43.060;25.624;2023-07-16T07:24:18;33.60;76.20
63802;DHT22;49949;43.060;25.624;2023-07-16T07:26:47;33.90;75.50
63802;DHT22;49949;43.060;25.624;2023-07-16T07:29:12;34.10;75.30
63802;DHT22;49949;43.060;25.624;2023-07-16T07:31:39;34.10;75.20
63802;DHT22;49949;43.060;25.624;2023-07-16T07:34:04;34.30;73.00
63802;DHT22;49949;43.060;25.624;2023-07-16T07:36:30;34.40;73.20
63802;DHT22;49949;43.060;25.624;2023-07-16T07:38:56;34.30;73.50
63802;DHT22;49949;43.060;25.624;2023-07-16T07:41:21;34.10;74.20
63802;DHT22;49949;43.060;25.624;2023-07-16T07:43:47;34.30;72.70
63802;DHT22;49949;43.060;25.624;2023-07-16T07:46:13;34.50;72.50
63802;DHT22;49949;43.060;25.624;2023-07-16T07:48:38;34.60;71.50
63802;DHT22;49949;43.060;25.624;2023-07-16T07:51:04;34.30;74.10
63802;DHT22;49949;43.060;25.624;2023-07-16T07:53:31;34.30;74.10
63802;DHT22;49949;43.060;25.624;2023-07-16T07:55:57;34.50;71.90
63802;DHT22;49949;43.060;25.624;2023-07-16T07:58:23;34.50;71.90
63802;DHT22;49949;43.060;25.624;2023-07-16T08:00:48;34.70;70.60
63802;DHT22;49949;43.060;25.624;2023-07-16T08:03:14;35.00;70.00
63802;DHT22;49949;43.060;25.624;2023-07-16T08:05:40;35.00;69.60
63802;DHT22;49949;43.060;25.624;2023-07-16T08:08:05;35.10;70.00
63802;DHT22;49949;43.060;25.624;2023-07-16T08:10:31;35.30;69.00
63802;DHT22;49949;43.060;25.624;2023-07-16T08:12:57;35.60;67.90
63802;DHT22;49949;43.060;25.624;2023-07-16T08:15:22;35.90;67.10
63802;DHT22;49949;43.060;25.624;2023-07-16T08:17:48;36.00;66.90
63802;DHT22;49949;43.060;25.624;2023-07-16T08:20:14;36.10;65.80
63802;DHT22;49949;43.060;25.624;2023-07-16T08:22:40;36.10;65.50
63802;DHT22;49949;43.060;25.624;2023-07-16T08:25:06;36.30;65.40
63802;DHT22;49949;43.060;25.624;2023-07-16T08:27:32;36.20;63.70
63802;DHT22;49949;43.060;25.624;2023-07-16T08:29:58;36.30;64.30
63802;DHT22;49949;43.060;25.624;2023-07-16T08:32:24;36.60;62.90
63802;DHT22;49949;43.060;25.624;2023-07-16T08:34:50;36.80;62.10
63802;DHT22;49949;43.060;25.624;2023-07-16T08:37:15;36.50;62.10
63802;DHT22;49949;43.060;25.624;2023-07-16T08:39:41;36.80;61.60
63802;DHT22;49949;43.060;25.624;2023-07-16T08:42:09;36.60;61.80
63802;DHT22;49949;43.060;25.624;2023-07-16T08:44:37;36.60;60.90
63802;DHT22;49949;43.060;25.624;2023-07-16T08:47:04;36.80;60.60
63802;DHT22;49949;43.060;25.624;2023-07-16T08:49:30;36.70;61.40
63802;DHT22;49949;43.060;25.624;2023-07-16T08:51:56;36.70;61.60
63802;DHT22;49949;43.060;25.624;2023-07-16T08:54:23;36.90;60.80
63802;DHT22;49949;43.060;25.624;2023-07-16T08:56:51;36.90;59.80
63802;DHT22;49949;43.060;25.624;2023-07-16T08:59:17;36.70;62.20
63802;DHT22;49949;43.060;25.624;2023-07-16T09:01:43;36.70;61.80
63802;DHT22;49949;43.060;25.624;2023-07-16T09:04:09;36.40;63.10
63802;DHT22;49949;43.060;25.624;2023-07-16T09:06:35;35.60;64.60
63802;DHT22;49949;43.060;25.624;2023-07-16T09:09:01;35.90;63.40
63802;DHT22;49949;43.060;25.624;2023-07-16T09:11:26;35.90;61.70
63802;DHT22;49949;43.060;25.624;2023-07-16T09:13:52;36.00;62.80
63802;DHT22;49949;43.060;25.624;2023-07-16T09:16:18;36.00;63.00
63802;DHT22;49949;43.060;25.624;2023-07-16T09:18:44;36.20;62.70
63802;DHT22;49949;43.060;25.624;2023-07-16T09:21:10;35.80;62.70
63802;DHT22;49949;43.060;25.624;2023-07-16T09:23:36;35.80;62.90
63802;DHT22;49949;43.060;25.624;2023-07-16T09:26:03;36.30;62.60
63802;DHT22;49949;43.060;25.624;2023-07-16T09:28:30;36.60;61.60
63802;DHT22;49949;43.060;25.624;2023-07-16T09:31:06;36.70;61.00
63802;DHT22;49949;43.060;25.624;2023-07-16T09:33:32;36.90;59.90
63802;DHT22;49949;43.060;25.624;2023-07-16T09:35:58;36.60;62.30
63802;DHT22;49949;43.060;25.624;2023-07-16T09:38:24;35.70;64.80
63802;DHT22;49949;43.060;25.624;2023-07-16T09:40:52;35.50;64.30
63802;DHT22;49949;43.060;25.624;2023-07-16T09:43:19;35.80;64.40
63802;DHT22;49949;43.060;25.624;2023-07-16T09:45:46;36.30;62.60
63802;DHT22;49949;43.060;25.624;2023-07-16T09:48:13;36.70;61.30
63802;DHT22;49949;43.060;25.624;2023-07-16T09:50:44;37.00;61.80
63802;DHT22;49949;43.060;25.624;2023-07-16T09:53:11;37.00;61.80
63802;DHT22;49949;43.060;25.624;2023-07-16T09:55:38;37.00;61.50
63802;DHT22;49949;43.060;25.624;2023-07-16T09:58:08;37.10;60.40
63802;DHT22;49949;43.060;25.624;2023-07-16T10:00:36;37.00;61.40
63802;DHT22;49949;43.060;25.624;2023-07-16T10:03:07;37.30;60.90
63802;DHT22;49949;43.060;25.624;2023-07-16T10:05:36;37.50;59.20
63802;DHT22;49949;43.060;25.624;2023-07-16T10:08:02;37.10;58.80
63802;DHT22;49949;43.060;25.624;2023-07-16T10:10:43;37.40;59.50
63802;DHT22;49949;43.060;25.624;2023-07-16T10:13:12;38.00;58.00
63802;DHT22;49949;43.060;25.624;2023-07-16T10:15:39;38.00;58.50
63802;DHT22;49949;43.060;25.624;2023-07-16T10:18:08;37.90;58.30
63802;DHT22;49949;43.060;25.624;2023-07-16T10:20:35;38.10;58.30
63802;DHT22;49949;43.060;25.624;2023-07-16T10:23:11;38.20;56.90
63802;DHT22;49949;43.060;25.624;2023-07-16T10:25:47;38.60;56.30
63802;DHT22;49949;43.060;25.624;2023-07-16T10:28:22;38.60;56.10
63802;DHT22;49949;43.060;25.624;2023-07-16T10:30:50;38.50;55.60
63802;DHT22;49949;43.060;25.624;2023-07-16T10:33:15;38.40;55.20
63802;DHT22;49949;43.060;25.624;2023-07-16T10:35:42;38.20;55.80
63802;DHT22;49949;43.060;25.624;2023-07-16T10:38:08;38.30;56.10
63802;DHT22;49949;43.060;25.624;2023-07-16T10:40:40;38.30;55.50
63802;DHT22;49949;43.060;25.624;2023-07-16T10:43:06;37.90;56.50
63802;DHT22;49949;43.060;25.624;2023-07-16T10:45:32;37.50;58.00
63802;DHT22;49949;43.060;25.624;2023-07-16T10:47:57;36.80;61.10
63802;DHT22;49949;43.060;25.624;2023-07-16T10:50:23;36.70;60.50
63802;DHT22;49949;43.060;25.624;2023-07-16T10:52:55;36.80;60.00
63802;DHT22;49949;43.060;25.624;2023-07-16T10:55:22;36.50;61.10
63802;DHT22;49949;43.060;25.624;2023-07-16T10:57:49;36.50;61.40
63802;DHT22;49949;43.060;25.624;2023-07-16T11:00:16;36.50;60.70
63802;DHT22;49949;43.060;25.624;2023-07-16T11:02:43;36.20;62.10
63802;DHT22;49949;43.060;25.624;2023-07-16T11:05:10;36.40;61.80
63802;DHT22;49949;43.060;25.624;2023-07-16T11:07:37;36.70;60.70
63802;DHT22;49949;43.060;25.624;2023-07-16T11:10:02;36.80;60.10
63802;DHT22;49949;43.060;25.624;2023-07-16T11:12:29;37.30;59.80
63802;DHT22;49949;43.060;25.624;2023-07-16T11:14:55;37.40;58.90
63802;DHT22;49949;43.060;25.624;2023-07-16T11:17:23;37.30;58.60
63802;DHT22;49949;43.060;25.624;2023-07-16T11:19:52;37.20;59.00
63802;DHT22;49949;43.060;25.624;2023-07-16T11:22:18;37.30;59.80
63802;DHT22;49949;43.060;25.624;2023-07-16T11:24:48;37.40;57.70
63802;DHT22;49949;43.060;25.624;2023-07-16T11:27:25;37.30;58.30
63802;DHT22;49949;43.060;25.624;2023-07-16T11:29:52;37.30;58.80
63802;DHT22;49949;43.060;25.624;2023-07-16T11:32:34;37.50;57.60
63802;DHT22;49949;43.060;25.624;2023-07-16T11:35:02;37.20;59.50
63802;DHT22;49949;43.060;25.624;2023-07-16T11:37:31;36.50;61.90
63802;DHT22;49949;43.060;25.624;2023-07-16T11:40:05;36.70;59.30
63802;DHT22;49949;43.060;25.624;2023-07-16T11:42:33;37.10;57.70
63802;DHT22;49949;43.060;25.624;2023-07-16T11:44:59;37.10;58.90
63802;DHT22;49949;43.060;25.624;2023-07-16T11:47:26;37.10;60.40
63802;DHT22;49949;43.060;25.624;2023-07-16T11:49:52;37.30;58.60
63802;DHT22;49949;43.060;25.624;2023-07-16T11:52:22;37.50;58.90
63802;DHT22;49949;43.060;25.624;2023-07-16T11:54:48;36.90;59.50
63802;DHT22;49949;43.060;25.624;2023-07-16T11:57:15;36.40;61.10
63802;DHT22;49949;43.060;25.624;2023-07-16T11:59:41;36.00;62.30
63802;DHT22;49949;43.060;25.624;2023-07-16T12:02:07;35.60;62.70
63802;DHT22;49949;43.060;25.624;2023-07-16T12:04:33;35.20;63.70
63802;DHT22;49949;43.060;25.624;2023-07-16T12:06:58;34.90;64.70
63802;DHT22;49949;43.060;25.624;2023-07-16T12:09:24;34.70;66.70
63802;DHT22;49949;43.060;25.624;2023-07-16T12:11:50;34.50;67.30
63802;DHT22;49949;43.060;25.624;2023-07-16T12:14:15;34.40;68.20
63802;DHT22;49949;43.060;25.624;2023-07-16T12:16:41;34.40;68.50
63802;DHT22;49949;43.060;25.624;2023-07-16T12:19:08;34.40;71.50
63802;DHT22;49949;43.060;25.624;2023-07-16T12:21:34;34.30;70.70
63802;DHT22;49949;43.060;25.624;2023-07-16T12:23:59;34.40;71.80
63802;DHT22;49949;43.060;25.624;2023-07-16T12:26:25;34.40;69.50
63802;DHT22;49949;43.060;25.624;2023-07-16T12:28:51;34.60;68.10
63802;DHT22;49949;43.060;25.624;2023-07-16T12:31:16;34.60;69.50
63802;DHT22;49949;43.060;25.624;2023-07-16T12:33:43;34.60;69.90
63802;DHT22;49949;43.060;25.624;2023-07-16T12:36:09;34.40;68.30
63802;DHT22;49949;43.060;25.624;2023-07-16T12:38:35;34.40;70.90
63802;DHT22;49949;43.060;25.624;2023-07-16T12:41:00;34.40;70.20
63802;DHT22;49949;43.060;25.624;2023-07-16T12:43:26;34.50;71.50
63802;DHT22;49949;43.060;25.624;2023-07-16T12:45:52;34.50;67.90
63802;DHT22;49949;43.060;25.624;2023-07-16T12:48:17;34.40;69.10
63802;DHT22;49949;43.060;25.624;2023-07-16T12:50:43;34.20;70.00
63802;DHT22;49949;43.060;25.624;2023-07-16T12:53:09;34.20;68.90
63802;DHT22;49949;43.060;25.624;2023-07-16T12:55:35;34.40;67.60
63802;DHT22;49949;43.060;25.624;2023-07-16T12:58:00;34.90;66.20
63802;DHT22;49949;43.060;25.624;2023-07-16T13:00:26;35.30;66.50
63802;DHT22;49949;43.060;25.624;2023-07-16T13:02:51;35.50;61.60
63802;DHT22;49949;43.060;25.624;2023-07-16T13:05:17;35.50;61.20
63802;DHT22;49949;43.060;25.624;2023-07-16T13:07:43;35.60;62.20
63802;DHT22;49949;43.060;25.624;2023-07-16T13:10:09;35.40;62.60
63802;DHT22;49949;43.060;25.624;2023-07-16T13:12:35;35.30;62.60
63802;DHT22;49949;43.060;25.624;2023-07-16T13:15:00;35.10;62.80
63802;DHT22;49949;43.060;25.624;2023-07-16T13:17:26;34.90;63.10
63802;DHT22;49949;43.060;25.624;2023-07-16T13:19:52;34.70;63.60
63802;DHT22;49949;43.060;25.624;2023-07-16T13:22:17;34.60;64.10
63802;DHT22;49949;43.060;25.624;2023-07-16T13:24:43;34.80;64.00
63802;DHT22;49949;43.060;25.624;2023-07-16T13:27:20;35.20;62.80
63802;DHT22;49949;43.060;25.624;2023-07-16T13:29:46;35.30;62.10
63802;DHT22;49949;43.060;25.624;2023-07-16T13:32:12;35.20;61.60
63802;DHT22;49949;43.060;25.624;2023-07-16T13:34:38;35.50;63.60
63802;DHT22;49949;43.060;25.624;2023-07-16T13:37:04;35.30;64.90
63802;DHT22;49949;43.060;25.624;2023-07-16T13:39:29;35.10;64.30
63802;DHT22;49949;43.060;25.624;2023-07-16T13:41:55;35.00;62.70
63802;DHT22;49949;43.060;25.624;2023-07-16T13:44:21;35.00;64.40
63802;DHT22;49949;43.060;25.624;2023-07-16T13:46:47;35.10;62.10
63802;DHT22;49949;43.060;25.624;2023-07-16T13:49:13;35.30;62.70
63802;DHT22;49949;43.060;25.624;2023-07-16T13:51:39;35.50;62.40
63802;DHT22;49949;43.060;25.624;2023-07-16T13:54:05;35.70;62.50
63802;DHT22;49949;43.060;25.624;2023-07-16T13:56:30;35.90;60.70
63802;DHT22;49949;43.060;25.624;2023-07-16T13:58:56;35.90;60.10
63802;DHT22;49949;43.060;25.624;2023-07-16T14:01:22;35.80;61.10
63802;DHT22;49949;43.060;25.624;2023-07-16T14:03:48;35.50;60.40
63802;DHT22;49949;43.060;25.624;2023-07-16T14:06:14;35.50;62.20
63802;DHT22;49949;43.060;25.624;2023-07-16T14:08:40;35.40;61.30
63802;DHT22;49949;43.060;25.624;2023-07-16T14:11:05;35.60;60.80
63802;DHT22;49949;43.060;25.624;2023-07-16T14:13:31;35.70;60.10
63802;DHT22;49949;43.060;25.624;2023-07-16T14:15:57;35.90;59.30
63802;DHT22;49949;43.060;25.624;2023-07-16T14:18:22;36.30;59.60
63802;DHT22;49949;43.060;25.624;2023-07-16T14:20:48;36.60;58.50
63802;DHT22;49949;43.060;25.624;2023-07-16T14:23:14;36.80;57.30
63802;DHT22;49949;43.060;25.624;2023-07-16T14:25:39;36.90;57.60
63802;DHT22;49949;43.060;25.624;2023-07-16T14:28:06;36.90;57.10
63802;DHT22;49949;43.060;25.624;2023-07-16T14:30:31;37.10;57.20
63802;DHT22;49949;43.060;25.624;2023-07-16T14:32:57;37.10;57.70
63802;DHT22;49949;43.060;25.624;2023-07-16T14:35:24;37.10;58.60
63802;DHT22;49949;43.060;25.624;2023-07-16T14:37:50;36.60;57.80
63802;DHT22;49949;43.060;25.624;2023-07-16T14:40:16;36.60;58.30
63802;DHT22;49949;43.060;25.624;2023-07-16T14:42:43;36.70;58.40
63802;DHT22;49949;43.060;25.624;2023-07-16T14:45:09;36.80;57.50
63802;DHT22;49949;43.060;25.624;2023-07-16T14:47:35;36.90;57.40
63802;DHT22;49949;43.060;25.624;2023-07-16T14:50:00;36.80;58.40
63802;DHT22;49949;43.060;25.624;2023-07-16T14:52:26;36.70;58.10
63802;DHT22;49949;43.060;25.624;2023-07-16T14:54:52;36.20;59.10
63802;DHT22;49949;43.060;25.624;2023-07-16T14:57:17;36.40;59.40
63802;DHT22;49949;43.060;25.624;2023-07-16T14:59:43;36.80;57.50
63802;DHT22;49949;43.060;25.624;2023-07-16T15:02:09;37.00;56.50
63802;DHT22;49949;43.060;25.624;2023-07-16T15:04:35;37.10;56.70
63802;DHT22;49949;43.060;25.624;2023-07-16T15:07:01;37.20;57.30
63802;DHT22;49949;43.060;25.624;2023-07-16T15:09:26;37.20;57.10
63802;DHT22;49949;43.060;25.624;2023-07-16T15:11:52;37.00;57.60
63802;DHT22;49949;43.060;25.624;2023-07-16T15:14:18;36.90;57.30